Time;durP1;ratioP1;P1;durP2;ratioP2;P2;SDS_P1;SDS_P2;PMS_P1;PMS_P2;Temp;Humidity;BMP_temperature;BMP_pressure;BME280_temperature;BME280_humidity;BME280_pressure;Samples;Min_cycle;Max_cycle;Signal;HPM_P1;HPM_P2
2022/08/01 00:00:33;;;;;;;7.87;7.17;;;19.90;99.90;;;;;;5073978;28;20381;-85
2022/08/01 00:02:59;;;;;;;7.75;6.93;;;19.80;99.90;;;;;;5057223;28;20386;-85
2022/08/01 00:05:24;;;;;;;7.90;7.20;;;19.70;99.90;;;;;;5057684;28;20445;-83
2022/08/01 00:07:50;;;;;;;8.00;7.25;;;19.70;99.90;;;;;;5057415;28;20382;-84
2022/08/01 00:10:17;;;;;;;8.47;7.77;;;19.60;99.90;;;;;;5059382;28;20942;-82
2022/08/01 00:12:44;;;;;;;9.02;7.90;;;19.50;99.90;;;;;;5056816;28;20870;-83
2022/08/01 00:15:11;;;;;;;8.60;7.80;;;19.50;99.90;;;;;;5056174;28;20405;-84
2022/08/01 00:17:38;;;;;;;9.40;8.50;;;19.40;99.90;;;;;;5055797;28;20394;-82
2022/08/01 00:20:05;;;;;;;8.98;8.18;;;19.40;99.90;;;;;;5055349;28;20373;-85
2022/08/01 00:22:32;;;;;;;10.55;9.25;;;19.30;99.90;;;;;;5055203;28;20465;-84
2022/08/01 00:24:58;;;;;;;9.50;8.70;;;19.30;99.90;;;;;;5073719;28;20416;-84
2022/08/01 00:27:24;;;;;;;10.10;9.20;;;19.30;99.90;;;;;;5056926;28;20771;-83
2022/08/01 00:29:49;;;;;;;10.03;9.07;;;19.30;99.90;;;;;;5056891;28;20378;-84
2022/08/01 00:32:15;;;;;;;9.27;8.57;;;19.30;99.90;;;;;;5073063;28;20951;-84
2022/08/01 00:34:41;;;;;;;9.98;8.98;;;19.30;99.90;;;;;;5073642;28;20532;-83
2022/08/01 00:37:06;;;;;;;9.23;8.07;;;19.30;99.90;;;;;;5055731;28;20902;-84
2022/08/01 00:39:32;;;;;;;9.18;8.27;;;19.30;99.90;;;;;;5075179;28;20408;-84
2022/08/01 00:41:59;;;;;;;9.00;8.20;;;19.30;99.90;;;;;;5056305;28;20386;-84
2022/08/01 00:44:25;;;;;;;9.70;8.70;;;19.30;99.90;;;;;;5054892;28;20374;-84
2022/08/01 00:46:51;;;;;;;9.50;8.65;;;19.30;99.90;;;;;;5054979;28;20481;-84
2022/08/01 00:49:17;;;;;;;9.60;8.70;;;19.30;99.90;;;;;;5073704;28;20409;-84
2022/08/01 00:51:43;;;;;;;9.27;8.48;;;19.30;99.90;;;;;;5074690;28;20378;-84
2022/08/01 00:54:08;;;;;;;9.63;8.73;;;19.30;99.90;;;;;;5057599;28;20398;-83
2022/08/01 00:56:34;;;;;;;9.20;8.40;;;19.30;99.90;;;;;;5059214;28;20461;-84
2022/08/01 00:59:00;;;;;;;8.85;8.05;;;19.20;99.90;;;;;;5076211;28;20374;-84
2022/08/01 01:01:26;;;;;;;9.02;8.27;;;19.20;99.90;;;;;;5060164;28;20439;-84
2022/08/01 01:03:52;;;;;;;8.53;7.87;;;19.20;99.90;;;;;;5076586;28;20374;-85
2022/08/01 01:06:37;;;;;;;9.25;8.48;;;19.20;99.90;;;;;;5058197;28;20375;-85
2022/08/01 01:09:05;;;;;;;9.88;8.90;;;19.30;99.90;;;;;;5073720;28;20381;-83
2022/08/01 01:12:02;;;;;;;8.70;8.00;;;19.30;99.90;;;;;;5075464;28;20379;-84
2022/08/01 01:15:18;;;;;;;9.13;8.43;;;19.30;99.90;;;;;;5059780;28;20401;-84
2022/08/01 01:18:11;;;;;;;9.00;8.25;;;19.30;99.90;;;;;;4961260;28;20405;-84
2022/08/01 01:20:41;;;;;;;8.13;7.47;;;19.30;99.90;;;;;;4956814;28;20431;-83
2022/08/01 01:23:09;;;;;;;9.75;8.75;;;19.20;99.90;;;;;;5034237;28;20389;-85
2022/08/01 01:25:58;;;;;;;9.20;8.40;;;19.10;99.90;;;;;;5059278;28;20378;-85
2022/08/01 01:28:41;;;;;;;8.82;8.18;;;19.20;99.90;;;;;;5059070;28;20393;-84
2022/08/01 01:31:10;;;;;;;8.50;7.80;;;19.10;99.90;;;;;;5056861;28;20433;-85
2022/08/01 01:33:39;;;;;;;9.43;8.63;;;19.10;99.90;;;;;;5074812;28;20867;-83
2022/08/01 01:36:09;;;;;;;9.95;8.77;;;19.10;99.90;;;;;;5058055;28;20385;-84
2022/08/01 01:38:41;;;;;;;9.70;8.75;;;19.10;99.90;;;;;;5073351;28;20370;-84
2022/08/01 01:41:09;;;;;;;10.48;9.50;;;19.10;99.90;;;;;;5054329;28;20393;-84
2022/08/01 01:43:36;;;;;;;11.13;10.23;;;19.10;99.90;;;;;;5052966;28;20398;-84
2022/08/01 01:46:04;;;;;;;11.88;10.77;;;19.10;99.90;;;;;;5053467;28;20377;-84
2022/08/01 01:48:32;;;;;;;12.60;11.57;;;19.00;99.90;;;;;;5036348;28;20386;-84
2022/08/01 01:51:00;;;;;;;14.30;12.90;;;18.90;99.90;;;;;;5053496;28;20545;-84
2022/08/01 01:53:28;;;;;;;13.32;12.13;;;18.90;99.90;;;;;;5052826;28;20441;-84
2022/08/01 01:55:57;;;;;;;13.43;12.23;;;18.80;99.90;;;;;;5053614;28;20930;-84
2022/08/01 01:58:28;;;;;;;12.60;11.50;;;18.90;99.90;;;;;;5053503;28;20806;-84
2022/08/01 02:00:56;;;;;;;13.00;11.90;;;18.90;99.90;;;;;;5053568;28;20744;-84
2022/08/01 02:03:26;;;;;;;12.77;11.68;;;19.00;99.90;;;;;;5070534;28;20851;-83
2022/08/01 02:05:53;;;;;;;12.77;11.60;;;19.00;99.90;;;;;;5071488;28;20457;-84
2022/08/01 02:08:21;;;;;;;12.10;10.88;;;19.00;99.90;;;;;;5053461;28;20755;-84
2022/08/01 02:13:34;;;;;;;11.57;10.57;;;19.10;99.90;;;;;;5070565;28;20440;-84
2022/08/01 02:16:01;;;;;;;11.50;10.60;;;19.00;99.90;;;;;;5053174;28;20895;-84
2022/08/01 02:18:27;;;;;;;12.32;11.23;;;19.10;99.90;;;;;;5053355;28;20390;-84
2022/08/01 02:20:55;;;;;;;11.75;10.73;;;19.10;99.90;;;;;;5071414;28;20404;-85
2022/08/01 02:23:23;;;;;;;12.25;11.15;;;19.10;99.90;;;;;;5053625;28;20371;-84
2022/08/01 02:25:53;;;;;;;11.00;10.00;;;19.10;99.90;;;;;;5053014;28;20382;-84
2022/08/01 02:28:35;;;;;;;11.77;10.77;;;19.20;99.90;;;;;;5053070;28;20895;-84
2022/08/01 02:31:06;;;;;;;10.32;9.43;;;19.20;99.90;;;;;;5053160;28;20389;-84
2022/08/01 02:33:40;;;;;;;11.83;10.83;;;19.30;99.90;;;;;;5052266;28;20391;-84
2022/08/01 02:36:07;;;;;;;11.70;10.70;;;19.30;99.90;;;;;;5053423;28;20469;-83
2022/08/01 02:38:42;;;;;;;10.73;9.83;;;19.30;99.90;;;;;;5053052;28;20428;-84
2022/08/01 02:41:10;;;;;;;11.15;10.15;;;19.40;99.90;;;;;;5036503;28;20394;-84
2022/08/01 02:43:45;;;;;;;10.95;9.95;;;19.40;99.90;;;;;;5056157;28;20370;-84
2022/08/01 02:46:19;;;;;;;11.30;10.30;;;19.40;99.90;;;;;;5074900;28;20413;-84
2022/08/01 02:48:46;;;;;;;10.73;9.80;;;19.40;99.90;;;;;;5074018;28;20387;-85
2022/08/01 02:51:14;;;;;;;10.60;9.80;;;19.50;99.90;;;;;;5056675;28;20374;-85
2022/08/01 02:53:41;;;;;;;10.98;10.07;;;19.50;99.90;;;;;;5073673;28;20374;-85
2022/08/01 02:56:08;;;;;;;11.20;10.18;;;19.50;99.90;;;;;;5056532;28;20382;-85
2022/08/01 02:58:35;;;;;;;11.40;10.27;;;19.50;99.90;;;;;;5074332;28;20512;-85
2022/08/01 03:01:03;;;;;;;11.95;10.85;;;19.50;99.90;;;;;;5056637;28;20891;-83
2022/08/01 03:03:29;;;;;;;10.50;9.60;;;19.50;99.90;;;;;;5073463;28;20386;-85
2022/08/01 03:05:57;;;;;;;10.40;9.50;;;19.50;99.90;;;;;;5056199;28;20371;-83
2022/08/01 03:08:24;;;;;;;11.88;10.77;;;19.40;99.90;;;;;;5056692;28;20370;-84
2022/08/01 03:10:53;;;;;;;10.85;9.80;;;19.40;99.90;;;;;;5055783;28;20402;-83
2022/08/01 03:13:21;;;;;;;10.10;9.20;;;19.50;99.90;;;;;;5073611;28;20381;-84
2022/08/01 03:15:47;;;;;;;10.80;9.80;;;19.50;99.90;;;;;;5039991;28;20467;-84
2022/08/01 03:18:15;;;;;;;10.85;9.90;;;19.50;99.90;;;;;;5074124;28;20867;-84
2022/08/01 03:20:42;;;;;;;10.82;9.80;;;19.60;99.90;;;;;;5041518;28;20883;-85
2022/08/01 03:23:11;;;;;;;11.10;10.00;;;19.60;99.90;;;;;;5074337;28;20366;-84
2022/08/01 03:25:39;;;;;;;11.43;10.43;;;19.60;99.90;;;;;;5075400;28;20378;-84
2022/08/01 03:28:06;;;;;;;10.60;9.65;;;19.60;99.90;;;;;;5056530;28;20419;-83
2022/08/01 03:30:35;;;;;;;11.27;10.27;;;19.60;99.90;;;;;;5056442;28;20378;-84
2022/08/01 03:33:01;;;;;;;10.98;9.98;;;19.60;99.90;;;;;;5056911;28;20420;-83
2022/08/01 03:35:33;;;;;;;12.30;11.20;;;19.70;99.90;;;;;;5057414;28;20402;-83
2022/08/01 03:38:01;;;;;;;11.35;10.20;;;19.60;99.90;;;;;;5058047;28;20843;-83
2022/08/01 03:40:51;;;;;;;11.80;10.65;;;19.60;99.90;;;;;;5056580;28;20405;-84
2022/08/01 03:43:29;;;;;;;13.27;11.20;;;19.60;99.90;;;;;;5056752;28;21153;-85
2022/08/01 03:46:01;;;;;;;12.05;10.85;;;19.60;99.90;;;;;;5075675;28;20399;-82
2022/08/01 03:48:31;;;;;;;11.82;10.73;;;19.60;99.90;;;;;;5057685;28;20515;-82
2022/08/01 03:50:59;;;;;;;12.73;11.38;;;19.70;99.90;;;;;;5056974;28;20378;-84
2022/08/01 03:53:28;;;;;;;12.65;11.20;;;19.70;99.90;;;;;;5055162;28;21042;-84
2022/08/01 03:55:58;;;;;;;12.80;11.48;;;19.60;99.90;;;;;;5057187;28;20386;-83
2022/08/01 03:58:24;;;;;;;12.90;11.50;;;19.60;99.90;;;;;;5074556;28;20710;-84
2022/08/01 04:00:50;;;;;;;13.87;12.37;;;19.60;99.90;;;;;;5074885;28;20459;-83
2022/08/01 04:03:16;;;;;;;12.55;11.35;;;19.60;99.90;;;;;;5074259;28;20422;-83
2022/08/01 04:05:42;;;;;;;13.50;12.10;;;19.60;99.90;;;;;;5056603;28;20379;-83
2022/08/01 04:08:08;;;;;;;13.50;12.10;;;19.60;99.90;;;;;;5074535;28;20381;-84
2022/08/01 04:10:34;;;;;;;12.60;11.30;;;19.70;99.90;;;;;;5055746;28;20386;-84
2022/08/01 04:13:00;;;;;;;13.60;12.20;;;19.70;99.90;;;;;;5073983;28;20445;-84
2022/08/01 04:15:26;;;;;;;14.88;12.45;;;19.70;99.90;;;;;;5056588;28;20462;-82
2022/08/01 04:17:53;;;;;;;13.63;12.23;;;19.70;99.90;;;;;;5074148;28;20875;-83
2022/08/01 04:20:19;;;;;;;13.63;12.43;;;19.70;99.90;;;;;;5074666;28;20851;-84
2022/08/01 04:22:45;;;;;;;13.13;11.82;;;19.70;99.90;;;;;;5056281;28;20382;-82
2022/08/01 04:25:39;;;;;;;13.75;11.68;;;19.80;99.90;;;;;;5074587;28;20375;-84
2022/08/01 04:28:07;;;;;;;13.05;11.80;;;19.80;99.90;;;;;;5052139;28;20382;-85
2022/08/01 04:30:35;;;;;;;13.05;11.85;;;19.80;99.90;;;;;;5073626;28;20382;-83
2022/08/01 04:33:06;;;;;;;12.73;11.30;;;19.90;99.90;;;;;;5072655;28;20498;-85
2022/08/01 04:35:33;;;;;;;12.52;11.38;;;19.90;99.90;;;;;;5073674;28;20421;-85
2022/08/01 04:38:01;;;;;;;12.50;11.27;;;19.90;99.90;;;;;;5056404;28;20362;-85
2022/08/01 04:40:28;;;;;;;13.27;11.80;;;19.90;99.90;;;;;;5074057;28;20879;-84
2022/08/01 04:42:55;;;;;;;12.93;11.73;;;19.90;99.90;;;;;;5074202;28;20421;-84
2022/08/01 04:45:21;;;;;;;12.95;11.65;;;19.90;99.90;;;;;;5055598;28;20378;-83
2022/08/01 04:47:47;;;;;;;12.33;11.10;;;19.90;99.90;;;;;;5074279;28;20404;-83
2022/08/01 04:50:13;;;;;;;13.10;11.80;;;19.90;99.90;;;;;;5055726;28;20413;-84
2022/08/01 04:52:41;;;;;;;15.55;11.57;;;19.90;99.90;;;;;;5055378;28;20877;-84
2022/08/01 04:55:08;;;;;;;13.75;12.20;;;20.00;99.90;;;;;;5055352;28;20488;-83
2022/08/01 04:57:37;;;;;;;12.57;11.32;;;20.00;99.90;;;;;;5072691;28;20883;-84
2022/08/01 05:00:04;;;;;;;12.25;10.95;;;20.00;99.90;;;;;;5054579;28;20424;-82
2022/08/01 05:02:29;;;;;;;12.70;11.40;;;20.00;99.90;;;;;;5072010;28;20429;-83
2022/08/01 05:04:55;;;;;;;12.43;11.23;;;20.10;99.90;;;;;;5053906;28;20402;-83
2022/08/01 05:07:21;;;;;;;12.30;11.10;;;20.10;99.90;;;;;;5054624;28;20864;-83
2022/08/01 05:09:47;;;;;;;12.55;11.35;;;20.10;99.90;;;;;;5054591;28;20606;-84
2022/08/01 05:12:13;;;;;;;12.63;11.33;;;20.10;99.90;;;;;;5055444;28;20385;-84
2022/08/01 05:14:39;;;;;;;13.18;11.80;;;20.20;99.90;;;;;;5072667;28;20428;-85
2022/08/01 05:17:06;;;;;;;13.85;12.55;;;20.20;99.90;;;;;;5054885;28;20746;-84
2022/08/01 05:19:39;;;;;;;13.27;12.05;;;20.20;99.90;;;;;;5055482;28;20359;-85
2022/08/01 05:22:07;;;;;;;13.13;11.90;;;20.30;99.90;;;;;;5055144;28;20374;-83
2022/08/01 05:24:39;;;;;;;12.48;11.23;;;20.30;99.90;;;;;;5054918;28;20413;-85
2022/08/01 05:27:07;;;;;;;12.10;10.90;;;20.40;99.90;;;;;;5055344;28;20724;-84
2022/08/01 05:29:33;;;;;;;10.60;9.60;;;20.40;99.90;;;;;;5054377;28;20447;-85
2022/08/01 05:31:59;;;;;;;10.10;9.10;;;20.50;99.90;;;;;;5071741;28;20484;-84
2022/08/01 05:34:26;;;;;;;11.07;10.02;;;20.60;99.90;;;;;;5054876;28;20798;-84
2022/08/01 05:36:53;;;;;;;10.73;9.63;;;20.60;99.90;;;;;;5072186;28;20396;-83
2022/08/01 05:39:18;;;;;;;10.45;9.55;;;20.60;99.90;;;;;;5054180;28;20386;-84
2022/08/01 05:41:44;;;;;;;10.00;9.00;;;20.60;99.90;;;;;;5072158;28;20366;-83
2022/08/01 05:44:16;;;;;;;11.10;9.68;;;20.70;99.90;;;;;;5053746;28;20732;-85
2022/08/01 05:46:41;;;;;;;9.25;8.38;;;20.80;99.90;;;;;;5054293;28;20382;-83
2022/08/01 05:49:07;;;;;;;9.77;8.88;;;21.00;99.90;;;;;;5053655;28;20382;-83
2022/08/01 05:51:35;;;;;;;9.65;8.75;;;21.00;99.90;;;;;;5072636;28;20856;-84
2022/08/01 05:54:00;;;;;;;9.70;8.75;;;21.00;99.90;;;;;;5053869;28;20393;-83
2022/08/01 05:56:26;;;;;;;8.57;7.78;;;20.90;99.90;;;;;;5054570;28;20467;-83
2022/08/01 05:58:52;;;;;;;8.68;7.88;;;20.80;99.90;;;;;;5054767;28;20371;-85
2022/08/01 06:01:18;;;;;;;8.40;7.65;;;20.80;99.90;;;;;;5054686;28;20538;-83
2022/08/01 06:03:44;;;;;;;9.82;8.93;;;20.80;99.90;;;;;;5072430;28;20405;-84
2022/08/01 06:06:16;;;;;;;9.13;7.88;;;20.80;99.90;;;;;;5053625;28;21031;-84
2022/08/01 06:08:42;;;;;;;9.88;8.88;;;20.90;99.90;;;;;;5054868;28;20876;-84
2022/08/01 06:11:07;;;;;;;8.30;7.60;;;20.90;99.90;;;;;;5073897;28;20370;-84
2022/08/01 06:13:33;;;;;;;9.30;8.40;;;21.00;99.90;;;;;;5072355;28;20403;-86
2022/08/01 06:15:59;;;;;;;9.50;8.60;;;21.00;99.90;;;;;;5053232;28;20463;-83
2022/08/01 06:18:25;;;;;;;8.38;7.57;;;21.00;99.90;;;;;;5076049;28;20417;-84
2022/08/01 06:20:50;;;;;;;7.87;7.07;;;21.00;99.90;;;;;;5076269;28;20453;-83
2022/08/01 06:23:17;;;;;;;7.32;6.63;;;21.20;99.90;;;;;;5058554;28;20367;-82
2022/08/01 06:25:43;;;;;;;7.57;6.88;;;21.50;99.90;;;;;;5076477;28;20393;-84
2022/08/01 06:28:11;;;;;;;7.20;6.60;;;21.60;99.90;;;;;;5058752;28;20412;-84
2022/08/01 06:30:36;;;;;;;7.20;6.50;;;21.70;99.90;;;;;;5076744;28;20386;-85
2022/08/01 06:33:05;;;;;;;7.00;6.35;;;21.90;99.90;;;;;;5076267;28;20875;-84
2022/08/01 06:35:34;;;;;;;7.22;6.53;;;22.00;99.90;;;;;;5076301;28;20421;-86
2022/08/01 06:37:59;;;;;;;6.47;5.97;;;22.10;99.90;;;;;;5058719;28;20381;-84
2022/08/01 06:40:25;;;;;;;6.90;6.18;;;22.20;99.90;;;;;;5076016;28;20449;-84
2022/08/01 06:42:59;;;;;;;6.60;6.00;;;22.60;99.90;;;;;;5076236;28;20427;-85
2022/08/01 06:45:26;;;;;;;5.72;5.18;;;22.70;99.90;;;;;;5076140;28;20374;-83
2022/08/01 06:47:52;;;;;;;5.72;5.22;;;23.00;99.90;;;;;;5058370;28;20390;-85
2022/08/01 06:50:18;;;;;;;5.63;5.13;;;23.30;99.90;;;;;;5058171;28;20933;-87
2022/08/01 06:52:47;;;;;;;5.93;5.37;;;23.50;99.90;;;;;;5075914;28;20366;-85
2022/08/01 06:55:14;;;;;;;6.97;6.38;;;23.30;99.90;;;;;;5058947;28;20489;-84
2022/08/01 06:57:50;;;;;;;6.73;5.97;;;22.90;99.90;;;;;;5076540;28;20389;-84
2022/08/01 07:00:20;;;;;;;7.53;6.72;;;22.60;99.90;;;;;;5058986;28;20523;-84
2022/08/01 07:02:46;;;;;;;8.02;7.32;;;22.30;99.90;;;;;;5058361;28;20393;-83
2022/08/01 07:05:12;;;;;;;8.60;7.50;;;22.00;99.90;;;;;;5058557;28;20386;-84
2022/08/01 07:07:38;;;;;;;9.20;8.30;;;21.70;99.90;;;;;;5076466;28;20378;-84
2022/08/01 07:10:04;;;;;;;8.30;7.50;;;21.60;99.90;;;;;;5057866;28;20383;-84
2022/08/01 07:12:34;;;;;;;8.35;7.53;;;21.50;99.90;;;;;;5057098;28;20444;-85
2022/08/01 07:14:59;;;;;;;7.90;7.15;;;21.40;99.90;;;;;;5058297;28;20413;-85
2022/08/01 07:17:25;;;;;;;8.25;7.55;;;21.50;99.90;;;;;;5075793;28;20374;-84
2022/08/01 07:19:50;;;;;;;8.60;7.47;;;21.90;99.90;;;;;;5074882;28;20417;-84
2022/08/01 07:22:16;;;;;;;7.72;6.95;;;22.30;99.90;;;;;;5075824;28;20865;-85
2022/08/01 07:24:42;;;;;;;7.63;6.83;;;22.60;99.90;;;;;;5058234;28;20452;-86
2022/08/01 07:27:08;;;;;;;7.85;7.05;;;22.90;99.90;;;;;;5057377;28;20461;-85
2022/08/01 07:29:33;;;;;;;7.40;6.70;;;22.80;99.90;;;;;;5075313;28;20374;-84
2022/08/01 07:32:00;;;;;;;7.82;6.95;;;22.80;99.90;;;;;;5056506;28;20428;-84
2022/08/01 07:34:26;;;;;;;7.00;6.40;;;22.80;99.90;;;;;;5049954;28;20453;-83
2022/08/01 07:36:53;;;;;;;6.18;5.50;;;22.60;99.90;;;;;;5076974;28;20851;-85
2022/08/01 07:39:22;;;;;;;5.45;4.95;;;22.50;99.90;;;;;;5095356;28;20379;-83
2022/08/01 07:41:47;;;;;;;5.90;5.30;;;22.70;99.90;;;;;;5080264;28;20383;-82
2022/08/01 07:44:14;;;;;;;5.00;4.60;;;22.90;99.90;;;;;;5078046;28;20372;-84
2022/08/01 07:46:42;;;;;;;4.40;4.00;;;23.20;99.90;;;;;;5078135;28;20404;-83
2022/08/01 07:49:10;;;;;;;3.78;3.30;;;23.40;99.90;;;;;;5095406;28;20376;-85
2022/08/01 07:51:36;;;;;;;4.70;3.65;;;23.30;99.90;;;;;;5094501;28;20381;-84
2022/08/01 07:54:07;;;;;;;3.80;3.50;;;23.30;99.90;;;;;;5095176;28;20380;-85
2022/08/01 07:56:36;;;;;;;5.18;3.80;;;23.40;99.90;;;;;;5078286;28;20392;-83
2022/08/01 07:59:02;;;;;;;3.15;2.85;;;23.50;99.90;;;;;;5077441;28;20874;-84
2022/08/01 08:01:28;;;;;;;2.70;2.50;;;23.60;99.90;;;;;;5076665;28;20376;-85
2022/08/01 08:03:57;;;;;;;4.30;2.77;;;23.60;99.90;;;;;;5077432;28;20384;-84
2022/08/01 08:06:22;;;;;;;3.35;3.00;;;23.60;99.90;;;;;;5095046;28;20384;-84
2022/08/01 08:08:53;;;;;;;2.90;2.70;;;23.70;99.90;;;;;;5095937;28;20425;-84
2022/08/01 08:11:20;;;;;;;2.00;1.87;;;24.20;99.90;;;;;;5077962;28;20878;-86
2022/08/01 08:13:46;;;;;;;2.40;2.20;;;24.60;99.90;;;;;;5078023;28;20477;-85
2022/08/01 08:16:11;;;;;;;4.90;2.67;;;24.80;99.90;;;;;;5076372;28;20897;-86
2022/08/01 08:18:38;;;;;;;3.58;2.50;;;24.80;99.90;;;;;;5076667;28;20885;-84
2022/08/01 08:21:03;;;;;;;3.30;2.53;;;24.60;99.90;;;;;;5076974;28;20392;-86
2022/08/01 08:26:14;;;;;;;3.67;2.85;;;24.20;99.90;;;;;;5085850;28;20396;-84
2022/08/01 08:28:39;;;;;;;2.60;2.40;;;23.80;99.90;;;;;;5074144;28;20373;-84
2022/08/01 08:31:05;;;;;;;2.90;2.70;;;23.60;99.90;;;;;;5055880;28;20372;-85
2022/08/01 08:33:31;;;;;;;3.55;3.05;;;23.50;99.90;;;;;;5073649;28;20393;-84
2022/08/01 08:35:57;;;;;;;3.13;2.90;;;23.30;99.90;;;;;;5073982;28;20786;-85
2022/08/01 08:38:25;;;;;;;4.13;3.47;;;23.20;99.90;;;;;;5056463;28;20378;-84
2022/08/01 08:40:52;;;;;;;4.88;3.60;;;23.10;99.90;;;;;;5055459;28;20380;-84
2022/08/01 08:43:18;;;;;;;4.78;3.55;;;23.00;99.90;;;;;;5055267;28;20887;-85
2022/08/01 08:45:46;;;;;;;3.35;3.00;;;23.00;99.90;;;;;;5055202;28;20383;-84
2022/08/01 08:48:16;;;;;;;5.78;3.40;;;23.10;99.90;;;;;;5057322;28;20366;-83
2022/08/01 08:50:43;;;;;;;3.60;3.30;;;23.10;99.90;;;;;;5074318;28;20378;-85
2022/08/01 08:53:15;;;;;;;3.33;2.97;;;23.10;99.90;;;;;;5055277;28;20743;-85
2022/08/01 08:55:44;;;;;;;4.28;3.72;;;23.20;99.90;;;;;;5056644;28;20772;-86
2022/08/01 08:58:13;;;;;;;3.67;3.38;;;23.40;99.90;;;;;;5073524;28;20449;-85
2022/08/01 09:00:44;;;;;;;3.40;2.90;;;23.60;99.90;;;;;;5073292;28;20373;-85
2022/08/01 09:03:09;;;;;;;4.45;2.90;;;23.60;99.90;;;;;;5054469;28;20847;-84
2022/08/01 09:05:35;;;;;;;4.63;3.03;;;23.60;99.90;;;;;;5056209;28;20374;-85
2022/08/01 09:08:01;;;;;;;3.50;2.83;;;23.50;99.90;;;;;;5074422;28;20881;-85
2022/08/01 09:10:26;;;;;;;3.40;2.83;;;23.30;99.90;;;;;;5055074;28;20390;-85
2022/08/01 09:13:06;;;;;;;3.30;3.00;;;23.10;99.90;;;;;;5055731;28;20937;-84
2022/08/01 09:15:39;;;;;;;2.50;2.20;;;22.80;99.90;;;;;;5055100;28;20464;-84
2022/08/01 09:18:06;;;;;;;2.93;2.40;;;22.70;99.90;;;;;;5074342;28;20386;-83
2022/08/01 09:20:35;;;;;;;3.03;2.78;;;22.90;99.90;;;;;;5074179;28;20427;-84
2022/08/01 09:23:03;;;;;;;3.80;2.60;;;22.90;99.90;;;;;;5073455;28;20425;-85
2022/08/01 09:25:33;;;;;;;3.17;2.55;;;22.90;99.90;;;;;;5055810;28;20713;-86
2022/08/01 09:28:06;;;;;;;2.40;2.20;;;22.80;99.90;;;;;;5055500;28;20411;-85
2022/08/01 09:30:39;;;;;;;2.53;2.33;;;22.80;99.90;;;;;;5072711;28;20387;-83
2022/08/01 09:33:05;;;;;;;2.95;2.17;;;22.90;99.90;;;;;;5055310;28;20381;-85
2022/08/01 09:35:36;;;;;;;2.17;1.98;;;22.90;99.90;;;;;;5073614;28;20398;-84
2022/08/01 09:38:19;;;;;;;2.37;2.17;;;23.00;99.90;;;;;;5054255;28;20436;-85
2022/08/01 09:40:58;;;;;;;2.40;2.15;;;23.30;99.90;;;;;;5046352;28;20393;-85
2022/08/01 09:43:28;;;;;;;2.10;1.90;;;23.60;99.90;;;;;;5072956;28;20374;-83
2022/08/01 09:45:55;;;;;;;2.23;1.90;;;24.00;99.90;;;;;;5055348;28;20919;-86
2022/08/01 09:48:22;;;;;;;1.70;1.60;;;24.20;99.90;;;;;;5056139;28;20759;-85
2022/08/01 09:50:52;;;;;;;2.08;1.67;;;24.50;99.90;;;;;;5055885;28;20382;-85
2022/08/01 09:53:19;;;;;;;2.95;1.60;;;24.60;99.90;;;;;;5058432;28;20451;-86
2022/08/01 09:55:45;;;;;;;1.50;1.23;;;24.40;99.90;;;;;;5077901;28;20409;-84
2022/08/01 09:58:11;;;;;;;1.95;1.48;;;24.40;99.90;;;;;;5060496;28;20378;-86
2022/08/01 10:00:38;;;;;;;1.50;1.40;;;24.50;99.90;;;;;;5059135;28;20864;-85
2022/08/01 10:03:33;;;;;;;1.30;1.20;;;24.80;99.90;;;;;;5060573;28;20389;-84
2022/08/01 10:05:59;;;;;;;1.85;1.20;;;25.00;99.90;;;;;;5057396;28;20884;-83
2022/08/01 10:08:25;;;;;;;3.00;1.43;;;25.20;99.90;;;;;;5057802;28;20413;-85
2022/08/01 10:11:11;;;;;;;1.25;1.10;;;24.90;99.90;;;;;;5058665;28;20471;-83
2022/08/01 10:13:40;;;;;;;2.17;1.10;;;24.60;99.90;;;;;;5076915;28;20386;-86
2022/08/01 10:16:06;;;;;;;2.80;1.40;;;24.40;99.90;;;;;;5058358;28;20456;-84
2022/08/01 10:18:34;;;;;;;2.67;1.80;;;24.40;99.90;;;;;;5058490;28;20902;-85
2022/08/01 10:21:04;;;;;;;2.00;1.30;;;24.20;99.90;;;;;;5057981;28;20378;-87
2022/08/01 10:23:37;;;;;;;1.80;1.17;;;24.50;99.90;;;;;;5057818;28;20436;-84
2022/08/01 10:26:07;;;;;;;2.80;1.00;;;24.80;99.90;;;;;;5058424;28;20733;-85
2022/08/01 10:28:36;;;;;;;1.90;1.30;;;24.90;99.90;;;;;;5058515;28;20446;-83
2022/08/01 10:31:02;;;;;;;1.35;1.10;;;24.70;99.90;;;;;;5058188;28;20390;-86
2022/08/01 10:33:30;;;;;;;2.03;1.30;;;24.60;99.90;;;;;;5038663;28;20384;-83
2022/08/01 10:35:56;;;;;;;1.42;1.30;;;24.30;99.90;;;;;;5038419;28;20395;-86
2022/08/01 10:38:26;;;;;;;2.65;1.20;;;24.20;99.90;;;;;;5038501;28;20400;-83
2022/08/01 10:40:53;;;;;;;2.45;1.65;;;24.10;99.90;;;;;;5038873;28;20462;-85
2022/08/01 10:43:21;;;;;;;3.40;1.73;;;23.90;99.90;;;;;;5076414;28;20393;-85
2022/08/01 10:45:50;;;;;;;2.65;2.00;;;23.60;99.90;;;;;;5077543;28;20374;-87
2022/08/01 10:48:24;;;;;;;3.25;2.20;;;23.40;99.90;;;;;;5058893;28;20400;-82
2022/08/01 10:50:56;;;;;;;2.95;1.88;;;23.30;99.90;;;;;;5057893;28;20432;-86
2022/08/01 10:53:24;;;;;;;4.63;1.67;;;23.30;99.90;;;;;;5054674;28;20389;-83
2022/08/01 10:55:54;;;;;;;1.60;1.50;;;23.10;99.90;;;;;;5056717;28;20402;-84
2022/08/01 10:58:24;;;;;;;2.00;1.52;;;22.80;99.90;;;;;;5075050;28;20388;-84
2022/08/01 11:01:20;;;;;;;2.15;1.77;;;22.70;99.90;;;;;;5057999;28;20378;-83
2022/08/01 11:04:10;;;;;;;1.70;1.60;;;22.80;99.90;;;;;;5058202;28;20382;-84
2022/08/01 11:06:41;;;;;;;2.72;1.60;;;23.00;99.90;;;;;;5058175;28;20394;-87
2022/08/01 11:09:16;;;;;;;1.90;1.60;;;23.10;99.90;;;;;;5057755;28;20412;-83
2022/08/01 11:12:16;;;;;;;2.70;1.50;;;23.20;99.90;;;;;;5057344;28;20484;-85
2022/08/01 11:15:00;;;;;;;2.72;1.65;;;23.20;99.90;;;;;;5039284;28;20431;-85
2022/08/01 11:17:51;;;;;;;1.95;1.70;;;23.20;99.90;;;;;;5049331;28;20390;-82
2022/08/01 11:20:34;;;;;;;4.80;2.20;;;22.90;99.90;;;;;;5056734;28;21257;-82
2022/08/01 11:23:05;;;;;;;2.40;1.65;;;22.50;99.90;;;;;;5075855;28;20485;-84
2022/08/01 11:25:37;;;;;;;3.13;1.93;;;22.40;99.90;;;;;;5057991;28;20385;-83
2022/08/01 11:28:17;;;;;;;2.47;1.50;;;22.50;99.90;;;;;;5055301;28;20386;-83
2022/08/01 11:30:54;;;;;;;1.60;1.50;;;22.90;99.90;;;;;;5056553;28;20405;-85
2022/08/01 11:33:42;;;;;;;3.13;1.50;;;23.20;99.90;;;;;;5058210;28;20440;-85
2022/08/01 11:36:10;;;;;;;1.85;1.45;;;23.40;99.90;;;;;;5057044;28;20402;-85
2022/08/01 11:39:10;;;;;;;2.00;1.40;;;23.60;99.90;;;;;;5074296;28;20440;-85
2022/08/01 11:41:41;;;;;;;1.80;1.10;;;23.90;99.90;;;;;;5056156;28;20405;-83
2022/08/01 11:44:17;;;;;;;1.35;1.10;;;24.50;99.90;;;;;;5073335;28;20384;-85
2022/08/01 11:46:49;;;;;;;1.65;1.30;;;25.00;99.90;;;;;;5059904;28;20378;-85
2022/08/01 11:49:36;;;;;;;1.20;1.00;;;25.30;99.90;;;;;;5060312;28;20453;-86
2022/08/01 11:52:25;;;;;;;1.55;1.15;;;25.60;99.90;;;;;;5059242;28;20388;-85
2022/08/01 11:55:08;;;;;;;1.58;1.13;;;26.00;99.90;;;;;;5057844;28;20483;-85
2022/08/01 11:57:41;;;;;;;1.50;1.00;;;26.10;99.90;;;;;;5058368;28;20397;-85
2022/08/01 12:00:13;;;;;;;1.08;0.95;;;26.30;99.90;;;;;;5076560;28;20422;-86
2022/08/01 12:02:39;;;;;;;1.30;1.08;;;26.50;99.90;;;;;;5057299;28;20416;-86
2022/08/01 12:05:17;;;;;;;1.10;1.00;;;26.40;99.90;;;;;;5057040;28;20423;-85
2022/08/01 12:07:54;;;;;;;;;;;;;;;;;;;;;
2022/08/01 12:10:25;;;;;;;1.40;1.20;;;26.50;99.90;;;;;;5072955;28;20384;-85
2022/08/01 12:12:59;;;;;;;1.90;1.00;;;26.60;99.90;;;;;;5075773;28;20374;-85
2022/08/01 12:15:31;;;;;;;1.02;0.93;;;26.60;99.90;;;;;;5054143;28;20453;-85
2022/08/01 12:18:02;;;;;;;1.83;1.00;;;26.60;99.90;;;;;;5055231;28;20378;-86
2022/08/01 12:20:32;;;;;;;1.75;1.00;;;26.40;99.90;;;;;;5074513;28;20652;-86
2022/08/01 12:23:12;;;;;;;2.42;1.00;;;26.20;99.90;;;;;;5058183;28;20416;-85
2022/08/01 12:25:45;;;;;;;1.63;0.90;;;25.90;99.90;;;;;;5062539;28;20431;-85
2022/08/01 12:28:14;;;;;;;2.45;0.90;;;25.70;99.90;;;;;;5074089;28;20386;-84
2022/08/01 12:30:44;;;;;;;3.30;1.10;;;25.30;99.90;;;;;;5056472;28;20406;-87
2022/08/01 12:33:16;;;;;;;2.30;1.10;;;25.20;99.90;;;;;;5057751;28;20371;-87
2022/08/01 12:35:42;;;;;;;2.95;1.27;;;25.10;99.90;;;;;;5070538;28;20410;-85
2022/08/01 12:38:16;;;;;;;1.93;1.00;;;25.10;99.90;;;;;;5053981;28;20495;-86
2022/08/01 12:40:46;;;;;;;1.10;1.00;;;25.00;99.90;;;;;;5053205;28;20764;-85
2022/08/01 12:43:25;;;;;;;1.00;0.80;;;25.00;99.90;;;;;;5027127;28;20423;-86
2022/08/01 12:45:58;;;;;;;2.33;1.00;;;25.00;99.90;;;;;;5051474;28;20973;-86
2022/08/01 12:48:25;;;;;;;2.47;0.85;;;25.40;99.90;;;;;;5052433;28;20409;-87
2022/08/01 12:50:52;;;;;;;2.75;1.05;;;25.80;99.90;;;;;;5068944;28;20389;-88
2022/08/01 12:53:21;;;;;;;1.53;0.93;;;26.00;99.90;;;;;;5053331;28;20389;-86
2022/08/01 12:55:49;;;;;;;1.40;1.00;;;26.10;99.90;;;;;;5054088;28;20410;-87
2022/08/01 12:58:17;;;;;;;1.40;0.85;;;25.90;99.90;;;;;;5071178;28;20429;-86
2022/08/01 13:00:45;;;;;;;1.88;0.90;;;26.10;99.90;;;;;;5052721;28;20387;-87